Time;durP1;ratioP1;P1;durP2;ratioP2;P2;SDS_P1;SDS_P2;PMS_P1;PMS_P2;Temp;Humidity;BMP_temperature;BMP_pressure;BME280_temperature;BME280_humidity;BME280_pressure;Samples;Min_cycle;Max_cycle;Signal;HPM_P1;HPM_P2
2022/05/31 00:00:36;;;;;;;7.47;4.00;;;;;;;20.56;100.00;100006.50;5040303;28;20208;-73
2022/05/31 00:03:05;;;;;;;5.80;4.32;;;;;;;20.55;100.00;100007.41;5081953;28;20637;-73
2022/05/31 00:05:33;;;;;;;7.03;4.47;;;;;;;20.48;100.00;100000.56;5092213;28;20205;-73
2022/05/31 00:08:00;;;;;;;7.20;4.32;;;;;;;20.44;100.00;100014.75;5088824;28;20245;-73
2022/05/31 00:10:28;;;;;;;7.47;4.50;;;;;;;20.52;100.00;100016.28;5071524;28;20199;-73
2022/05/31 00:12:55;;;;;;;5.70;4.85;;;;;;;20.45;100.00;100006.78;5076937;28;20669;-73
2022/05/31 00:15:23;;;;;;;5.97;4.45;;;;;;;20.43;100.00;100002.47;5091482;28;20551;-73
2022/05/31 00:17:50;;;;;;;5.40;4.90;;;;;;;20.43;100.00;100019.16;5091321;28;20289;-73
2022/05/31 00:20:17;;;;;;;9.38;5.05;;;;;;;20.38;100.00;100020.16;5091670;28;20209;-73
2022/05/31 00:22:46;;;;;;;5.32;4.88;;;;;;;20.42;100.00;100022.69;5087876;28;20646;-73
2022/05/31 00:25:14;;;;;;;8.10;5.22;;;;;;;20.34;100.00;100010.59;5082897;28;20198;-73
2022/05/31 00:27:42;;;;;;;5.47;4.97;;;;;;;20.24;100.00;99995.03;5075951;28;20217;-73
2022/05/31 00:30:11;;;;;;;8.68;5.47;;;;;;;20.29;100.00;100010.75;5073567;28;20210;-73
2022/05/31 00:32:41;;;;;;;6.63;5.20;;;;;;;20.27;100.00;100002.88;5073845;28;20195;-73
2022/05/31 00:35:11;;;;;;;7.18;4.97;;;;;;;20.35;100.00;100023.75;5091159;28;20685;-73
2022/05/31 00:37:39;;;;;;;5.82;5.20;;;;;;;20.08;100.00;99988.41;5041989;28;20214;-73
2022/05/31 00:40:07;;;;;;;20.75;11.77;;;;;;;20.21;100.00;100010.91;5091045;28;20263;-73
2022/05/31 00:42:54;;;;;;;10.40;5.25;;;;;;;20.13;100.00;99998.81;5043193;28;20208;-73
2022/05/31 00:45:23;;;;;;;7.68;5.88;;;;;;;20.24;100.00;100024.00;5072267;28;20241;-73
2022/05/31 00:47:50;;;;;;;12.65;7.20;;;;;;;20.09;100.00;99997.16;5090462;28;20229;-73
2022/05/31 00:50:26;;;;;;;7.53;5.05;;;;;;;20.22;100.00;100010.00;5090956;28;20194;-73
2022/05/31 00:52:56;;;;;;;6.63;4.72;;;;;;;20.15;100.00;100007.56;5081623;28;20728;-73
2022/05/31 00:55:29;;;;;;;8.02;4.60;;;;;;;20.23;100.00;100013.47;5060911;28;20198;-73
2022/05/31 00:58:15;;;;;;;5.72;5.18;;;;;;;20.20;100.00;100011.81;5053660;28;20285;-73
2022/05/31 01:00:42;;;;;;;9.35;7.53;;;;;;;20.17;100.00;100003.97;5078431;28;20198;-73
2022/05/31 01:03:13;;;;;;;13.48;7.80;;;;;;;20.17;100.00;100006.63;5083756;28;20198;-73
2022/05/31 01:05:39;;;;;;;7.35;4.50;;;;;;;20.38;100.00;100023.66;5070703;28;20198;-73
2022/05/31 01:08:07;;;;;;;7.05;5.40;;;;;;;20.41;100.00;100025.34;5089285;28;20237;-73
2022/05/31 01:10:34;;;;;;;4.65;4.25;;;;;;;20.47;100.00;100006.78;5090175;28;20206;-73
2022/05/31 01:13:04;;;;;;;8.13;5.60;;;;;;;20.57;100.00;100026.69;5054787;28;20294;-73
2022/05/31 01:15:30;;;;;;;12.50;5.68;;;;;;;20.40;100.00;100026.28;5090794;28;20190;-73
2022/05/31 01:17:57;;;;;;;4.70;3.90;;;;;;;20.43;100.00;100023.56;5072392;28;20244;-73
2022/05/31 01:20:26;;;;;;;4.40;4.10;;;;;;;20.40;100.00;100018.38;5071496;28;20264;-73
2022/05/31 01:22:55;;;;;;;10.10;4.22;;;;;;;20.30;100.00;99995.81;5087031;28;20191;-73
2022/05/31 01:25:41;;;;;;;7.07;4.60;;;;;;;20.45;100.00;100008.56;5081589;28;20331;-73
2022/05/31 01:28:17;;;;;;;12.98;7.88;;;;;;;20.36;100.00;100011.44;5058930;28;20276;-73
2022/05/31 01:30:47;;;;;;;9.52;4.75;;;;;;;20.19;100.00;99983.72;5049846;28;20260;-73
2022/05/31 01:33:22;;;;;;;7.82;4.75;;;;;;;20.34;100.00;100002.72;5069448;28;20202;-73
2022/05/31 01:35:51;;;;;;;7.22;4.43;;;;;;;20.20;100.00;99981.97;5069755;28;20202;-73
2022/05/31 01:38:22;;;;;;;5.15;4.20;;;;;;;20.33;100.00;100007.13;5087258;28;20268;-73
2022/05/31 01:40:56;;;;;;;4.38;3.90;;;;;;;20.19;100.00;99991.63;5070207;28;20199;-73
2022/05/31 01:43:23;;;;;;;6.28;4.47;;;;;;;20.18;100.00;100007.50;5070331;28;20203;-73
2022/05/31 01:45:59;;;;;;;6.30;4.40;;;;;;;20.19;100.00;99994.25;5077774;28;20190;-73
2022/05/31 01:48:30;;;;;;;7.07;4.85;;;;;;;20.22;100.00;100010.00;5050169;28;20659;-73
2022/05/31 01:50:58;;;;;;;6.75;4.70;;;;;;;20.17;100.00;100009.25;5065215;28;20783;-73
2022/05/31 01:53:25;;;;;;;10.07;5.15;;;;;;;20.02;100.00;99996.47;5075191;28;20202;-73
2022/05/31 01:55:52;;;;;;;7.82;4.75;;;;;;;19.95;100.00;99994.88;5069922;28;20198;-73
2022/05/31 01:58:22;;;;;;;6.43;5.00;;;;;;;19.98;100.00;100009.72;5070239;28;20210;-73
2022/05/31 02:00:50;;;;;;;7.10;5.25;;;;;;;19.81;100.00;100023.31;5069983;28;20195;-73
2022/05/31 02:03:19;;;;;;;4.97;4.40;;;;;;;19.89;100.00;100021.34;5082906;28;20194;-73
2022/05/31 02:05:48;;;;;;;8.85;4.72;;;;;;;19.84;100.00;100011.81;5079821;28;20268;-73
2022/05/31 02:08:18;;;;;;;32.42;18.27;;;;;;;19.67;100.00;100009.59;5087760;28;20233;-73
2022/05/31 02:10:45;;;;;;;11.23;5.50;;;;;;;19.79;100.00;100019.84;5090361;28;20191;-73
2022/05/31 02:13:13;;;;;;;6.25;5.47;;;;;;;19.71;100.00;100014.75;5089516;28;20210;-73
2022/05/31 02:15:40;;;;;;;10.88;5.78;;;;;;;19.77;100.00;100013.75;5090149;28;20226;-73
2022/05/31 02:18:07;;;;;;;5.32;4.82;;;;;;;19.68;100.00;100014.84;5073123;28;20207;-73
2022/05/31 02:20:35;;;;;;;9.88;5.30;;;;;;;19.76;100.00;100025.19;5071785;28;20194;-72
2022/05/31 02:23:01;;;;;;;10.70;8.65;;;;;;;19.52;100.00;100020.47;5051298;28;20279;-73
2022/05/31 02:25:30;;;;;;;19.65;11.07;;;;;;;19.44;100.00;100025.06;5078990;28;20199;-73
2022/05/31 02:27:56;;;;;;;11.40;8.65;;;;;;;19.58;100.00;100034.38;5038906;28;20288;-73
2022/05/31 02:30:23;;;;;;;10.73;8.32;;;;;;;19.68;100.00;100050.81;5073658;28;20254;-73
2022/05/31 02:32:50;;;;;;;14.35;8.35;;;;;;;19.66;100.00;100049.94;5073592;28;20228;-72
2022/05/31 02:35:17;;;;;;;20.70;11.95;;;;;;;19.63;100.00;100047.41;5074194;28;20191;-73
2022/05/31 02:37:44;;;;;;;17.77;10.95;;;;;;;19.42;100.00;100051.38;5073071;28;20601;-73
2022/05/31 02:40:12;;;;;;;13.35;10.02;;;;;;;19.35;100.00;100028.69;5073364;28;20190;-73
2022/05/31 02:42:42;;;;;;;13.43;9.25;;;;;;;19.63;100.00;100039.50;5073447;28;20190;-73
2022/05/31 02:45:10;;;;;;;11.07;8.90;;;;;;;19.49;100.00;100052.09;5067044;28;20205;-73
2022/05/31 02:47:39;;;;;;;15.85;11.25;;;;;;;19.47;100.00;100040.75;5078114;28;20215;-73
2022/05/31 02:50:07;;;;;;;21.38;11.57;;;;;;;19.44;100.00;100039.03;5075410;28;20293;-73
2022/05/31 02:52:34;;;;;;;14.85;8.93;;;;;;;19.51;100.00;100021.38;5076145;28;20198;-72
2022/05/31 02:55:01;;;;;;;15.32;9.00;;;;;;;19.66;100.00;100044.69;5073713;28;20272;-73
2022/05/31 02:57:28;;;;;;;11.98;8.05;;;;;;;19.72;100.00;100055.09;5072415;28;20654;-72
2022/05/31 02:59:57;;;;;;;14.35;9.52;;;;;;;19.63;100.00;100071.06;5072435;28;20684;-73
2022/05/31 03:02:23;;;;;;;17.83;9.98;;;;;;;19.59;100.00;100100.97;5072291;28;20848;-72
2022/05/31 03:04:50;;;;;;;11.90;8.13;;;;;;;19.01;100.00;100104.75;5075400;28;20256;-73
2022/05/31 03:07:17;;;;;;;18.25;7.38;;;;;;;18.85;100.00;100116.44;5072418;28;20259;-73
2022/05/31 03:09:44;;;;;;;8.32;6.88;;;;;;;18.93;100.00;100119.78;5052979;28;20276;-73
2022/05/31 03:12:15;;;;;;;11.35;7.03;;;;;;;19.07;100.00;100107.25;5072059;28;20210;-73
2022/05/31 03:14:46;;;;;;;9.77;6.60;;;;;;;19.08;100.00;100089.75;5074455;28;20715;-72
2022/05/31 03:17:18;;;;;;;9.35;5.85;;;;;;;19.26;100.00;100103.34;5073780;28;20293;-73
2022/05/31 03:19:49;;;;;;;10.23;6.80;;;;;;;19.72;100.00;100103.31;5086722;28;20187;-73
2022/05/31 03:22:22;;;;;;;11.32;6.45;;;;;;;20.09;100.00;100098.06;5073204;28;20260;-73
2022/05/31 03:24:54;;;;;;;7.28;5.45;;;;;;;20.56;100.00;100117.16;5089589;28;20339;-73
2022/05/31 03:27:21;;;;;;;11.85;7.47;;;;;;;21.06;100.00;100126.38;5082724;28;20214;-73
2022/05/31 03:29:50;;;;;;;7.85;4.28;;;;;;;21.17;100.00;100072.50;5091916;28;20569;-73
2022/05/31 03:32:19;;;;;;;5.30;4.75;;;;;;;21.84;100.00;100144.41;5072986;28;20767;-73
2022/05/31 03:34:45;;;;;;;5.43;4.88;;;;;;;22.15;100.00;100139.94;5088694;28;20199;-73
2022/05/31 03:37:12;;;;;;;8.23;4.70;;;;;;;22.59;100.00;100149.09;5090737;28;20255;-72
2022/05/31 03:39:39;;;;;;;12.80;6.72;;;;;;;23.18;100.00;100149.75;5073425;28;20273;-72
2022/05/31 03:42:07;;;;;;;15.13;7.00;;;;;;;23.87;100.00;100150.72;5072284;28;20209;-72
2022/05/31 03:44:34;;;;;;;4.53;4.05;;;;;;;24.50;100.00;100155.31;5073395;28;20210;-71
2022/05/31 03:47:03;;;;;;;5.00;3.90;;;;;;;25.29;100.00;100167.91;5079310;28;20213;-72
2022/05/31 03:49:31;;;;;;;5.22;4.53;;;;;;;25.64;100.00;100159.25;5060756;28;20908;-73
2022/05/31 03:51:59;;;;;;;12.02;5.65;;;;;;;25.26;100.00;100164.50;5073113;28;20737;-73
2022/05/31 03:54:27;;;;;;;5.88;4.75;;;;;;;24.78;100.00;100152.38;5074705;28;20210;-72
2022/05/31 03:56:53;;;;;;;8.02;5.35;;;;;;;25.00;100.00;100145.28;5028175;28;20195;-72
2022/05/31 03:59:20;;;;;;;9.82;6.40;;;;;;;25.93;100.00;100146.41;5085004;28;20209;-72
2022/05/31 04:01:47;;;;;;;5.75;5.22;;;;;;;26.78;100.00;100152.91;5091461;28;20195;-72
2022/05/31 04:04:14;;;;;;;8.25;4.80;;;;;;;27.33;94.33;100151.81;5072116;28;20211;-72
2022/05/31 04:06:42;;;;;;;6.47;4.72;;;;;;;28.01;87.21;100158.78;5077189;28;20297;-71
2022/05/31 04:09:09;;;;;;;10.05;5.30;;;;;;;27.98;85.33;100153.63;5079904;28;20234;-70
2022/05/31 04:11:36;;;;;;;8.55;4.90;;;;;;;27.90;85.95;100137.19;5071790;28;20582;-70
2022/05/31 04:14:03;;;;;;;9.75;4.82;;;;;;;28.69;82.77;100162.06;5071903;28;20199;-70
2022/05/31 04:16:30;;;;;;;7.95;4.28;;;;;;;28.28;78.06;100119.09;5037962;28;20205;-70
2022/05/31 04:18:56;;;;;;;9.40;7.47;;;;;;;27.17;93.23;100174.00;5072063;28;20194;-70
2022/05/31 04:21:23;;;;;;;7.63;6.75;;;;;;;27.18;96.44;100157.97;5072615;28;20198;-70
2022/05/31 04:24:02;;;;;;;11.40;7.15;;;;;;;27.96;91.46;100170.66;5071228;28;20210;-70
2022/05/31 04:26:31;;;;;;;13.45;7.60;;;;;;;28.37;88.44;100192.38;5072090;28;20191;-70
2022/05/31 04:28:58;;;;;;;13.57;7.53;;;;;;;29.01;83.01;100187.72;5071014;28;20234;-72
2022/05/31 04:31:25;;;;;;;7.75;6.28;;;;;;;29.31;79.50;100192.22;5075325;28;20248;-70
2022/05/31 04:33:52;;;;;;;8.90;6.65;;;;;;;29.86;73.61;100192.38;5083347;28;20209;-70
2022/05/31 04:36:21;;;;;;;11.60;7.28;;;;;;;29.89;73.33;100190.41;5072929;28;20591;-70
2022/05/31 04:38:48;;;;;;;11.05;6.72;;;;;;;30.06;69.10;100175.97;5085600;28;20682;-70
2022/05/31 04:41:21;;;;;;;9.38;6.20;;;;;;;30.05;69.94;100168.03;5073498;28;20209;-70
2022/05/31 04:43:48;;;;;;;10.85;6.82;;;;;;;30.50;69.30;100190.00;5075651;28;20252;-70
2022/05/31 04:46:17;;;;;;;9.80;7.03;;;;;;;30.33;67.71;100184.00;5071626;28;20214;-71
2022/05/31 04:48:45;;;;;;;8.32;7.03;;;;;;;29.90;69.31;100183.22;5071053;28;20237;-70
2022/05/31 04:51:12;;;;;;;11.15;7.22;;;;;;;29.16;74.77;100182.44;5079156;28;20194;-72
2022/05/31 04:53:40;;;;;;;10.82;7.40;;;;;;;29.02;77.35;100181.44;5081950;28;20659;-69
2022/05/31 04:56:09;;;;;;;14.02;7.30;;;;;;;29.01;77.34;100179.72;5085137;28;20657;-72
2022/05/31 04:58:38;;;;;;;10.70;6.65;;;;;;;29.71;72.15;100194.19;5090666;28;20197;-71
2022/05/31 05:01:06;;;;;;;16.08;6.30;;;;;;;29.44;73.15;100194.06;5061744;28;20204;-71
2022/05/31 05:03:33;;;;;;;10.45;6.10;;;;;;;29.41;74.42;100188.91;5054765;28;20658;-71
2022/05/31 05:06:00;;;;;;;11.48;6.63;;;;;;;29.93;71.14;100180.38;5068332;28;20571;-67
2022/05/31 05:08:28;;;;;;;9.40;6.45;;;;;;;30.43;68.28;100185.16;5070411;28;20707;-72
2022/05/31 05:10:55;;;;;;;14.25;6.65;;;;;;;31.12;65.85;100189.50;5071067;28;20588;-71
2022/05/31 05:13:22;;;;;;;19.08;6.30;;;;;;;30.76;64.06;100199.00;5079360;28;20230;-72
2022/05/31 05:15:51;;;;;;;13.13;6.55;;;;;;;30.85;63.22;100171.63;5071351;28;20214;-71
2022/05/31 05:18:18;;;;;;;16.33;6.75;;;;;;;30.86;62.05;100200.09;5062386;28;20214;-73
2022/05/31 05:20:45;;;;;;;14.25;6.35;;;;;;;31.50;60.08;100206.47;5056496;28;20198;-72
2022/05/31 05:23:12;;;;;;;17.98;6.60;;;;;;;31.30;59.62;100209.69;5078163;28;20206;-70
2022/05/31 05:25:39;;;;;;;17.00;6.70;;;;;;;31.96;59.47;100199.59;5073250;28;20224;-69
2022/05/31 05:30:48;;;;;;;13.35;6.40;;;;;;;32.93;54.60;100219.31;5070114;28;20206;-71
2022/05/31 05:33:16;;;;;;;10.25;5.47;;;;;;;32.03;56.35;100204.56;5070120;28;20194;-70
2022/05/31 05:35:43;;;;;;;9.63;6.30;;;;;;;32.28;57.49;100199.16;5080619;28;20194;-70
2022/05/31 05:38:10;;;;;;;12.38;5.93;;;;;;;31.80;58.40;100217.78;5070952;28;20647;-70
2022/05/31 05:40:37;;;;;;;10.40;6.28;;;;;;;32.08;58.28;100214.00;5077504;28;20629;-72
2022/05/31 05:43:07;;;;;;;12.50;6.50;;;;;;;31.48;59.41;100219.13;5069771;28;20198;-70
2022/05/31 05:45:34;;;;;;;13.98;6.55;;;;;;;30.83;61.73;100216.38;5076123;28;20228;-70
2022/05/31 05:48:01;;;;;;;6.90;6.20;;;;;;;29.97;65.73;100204.13;5090481;28;20221;-70
2022/05/31 05:50:29;;;;;;;10.88;6.28;;;;;;;29.42;73.67;100221.84;5090248;28;20221;-70
2022/05/31 05:52:59;;;;;;;16.83;6.63;;;;;;;28.98;76.80;100211.94;5089956;28;20209;-71
2022/05/31 05:55:26;;;;;;;12.93;6.70;;;;;;;28.79;79.02;100226.47;5090068;28;20197;-70
2022/05/31 05:57:54;;;;;;;9.45;7.18;;;;;;;26.96;92.60;100224.75;5090437;28;20209;-70
2022/05/31 06:00:22;;;;;;;11.20;7.20;;;;;;;26.45;99.03;100227.25;5094071;28;20198;-70
2022/05/31 06:02:54;;;;;;;10.30;7.38;;;;;;;26.38;100.00;100232.00;5094076;28;20200;-70
2022/05/31 06:05:24;;;;;;;12.13;7.30;;;;;;;26.24;100.00;100217.63;5093864;28;20652;-70
2022/05/31 06:07:56;;;;;;;16.73;7.45;;;;;;;26.00;100.00;100216.94;5093778;28;20238;-71
2022/05/31 06:10:27;;;;;;;14.27;9.55;;;;;;;26.25;100.00;100203.41;5093628;28;20256;-70
2022/05/31 06:12:57;;;;;;;22.60;7.97;;;;;;;26.47;100.00;100220.06;5093593;28;20689;-70
2022/05/31 06:15:30;;;;;;;13.75;6.82;;;;;;;27.14;100.00;100214.97;5071559;28;20205;-69
2022/05/31 06:18:00;;;;;;;16.70;6.53;;;;;;;28.19;91.88;100222.72;5073280;28;20297;-68
2022/05/31 06:20:29;;;;;;;9.50;5.78;;;;;;;28.27;95.16;100221.38;5073199;28;20662;-70
2022/05/31 06:22:58;;;;;;;9.73;6.10;;;;;;;28.37;89.32;100216.38;5060992;28;20223;-70
2022/05/31 06:25:25;;;;;;;12.02;7.35;;;;;;;28.43;88.84;100213.38;5071715;28;20203;-68
2022/05/31 06:27:52;;;;;;;15.07;6.18;;;;;;;27.74;91.94;100213.59;5072900;28;20197;-70
2022/05/31 06:30:19;;;;;;;12.32;5.85;;;;;;;26.98;93.96;100206.88;5070174;28;20245;-70
2022/05/31 06:32:46;;;;;;;8.23;6.30;;;;;;;27.40;96.84;100203.81;5053049;28;20199;-70
2022/05/31 06:35:12;;;;;;;11.60;6.30;;;;;;;27.18;96.72;100213.88;5050771;28;20199;-70
2022/05/31 06:37:39;;;;;;;9.70;6.20;;;;;;;26.82;100.00;100216.59;5053085;28;20207;-70
2022/05/31 06:40:09;;;;;;;10.02;6.65;;;;;;;26.52;100.00;100216.25;5052807;28;20222;-69
2022/05/31 06:42:36;;;;;;;12.60;7.20;;;;;;;25.96;100.00;100215.38;5053015;28;20204;-69
2022/05/31 06:45:03;;;;;;;10.95;7.13;;;;;;;26.14;100.00;100212.72;5052768;28;20191;-69
2022/05/31 06:47:30;;;;;;;8.95;7.40;;;;;;;26.38;100.00;100207.19;5034100;28;20257;-69
2022/05/31 06:49:56;;;;;;;11.57;7.95;;;;;;;26.38;100.00;100204.53;5052840;28;20301;-69
2022/05/31 06:57:53;;;;;;;10.27;7.60;;;;;;;25.49;100.00;100204.19;5052713;28;20281;-69
2022/05/31 07:00:22;;;;;;;14.90;8.13;;;;;;;25.87;100.00;100205.13;5052497;28;20203;-69
2022/05/31 07:02:50;;;;;;;10.45;6.28;;;;;;;26.09;100.00;100197.91;5052307;28;20333;-69
2022/05/31 07:05:18;;;;;;;19.85;6.35;;;;;;;26.07;100.00;100218.41;5050350;28;20278;-70
2022/05/31 07:07:45;;;;;;;14.70;6.43;;;;;;;26.07;100.00;100205.97;5033512;28;20235;-69
2022/05/31 07:10:13;;;;;;;11.25;4.97;;;;;;;26.06;100.00;100196.25;5051949;28;20227;-69
2022/05/31 07:12:42;;;;;;;4.80;4.38;;;;;;;25.95;100.00;100217.16;5052441;28;20206;-69
2022/05/31 07:15:09;;;;;;;6.60;4.95;;;;;;;25.96;100.00;100197.63;5052192;28;20512;-69
2022/05/31 07:17:36;;;;;;;8.65;5.10;;;;;;;25.97;100.00;100198.50;5052177;28;20625;-69
2022/05/31 07:20:04;;;;;;;6.40;4.63;;;;;;;26.22;100.00;100214.19;5052083;28;20702;-69
2022/05/31 07:22:31;;;;;;;8.70;4.57;;;;;;;26.28;100.00;100219.22;5052005;28;20204;-69
2022/05/31 07:24:58;;;;;;;6.47;4.25;;;;;;;26.07;100.00;100227.22;5052369;28;20198;-70
2022/05/31 07:27:27;;;;;;;7.43;4.22;;;;;;;25.95;100.00;100209.19;5051891;28;20223;-69
2022/05/31 07:29:54;;;;;;;6.75;4.35;;;;;;;26.28;100.00;100219.22;5051873;28;20220;-70
2022/05/31 07:32:21;;;;;;;7.13;4.30;;;;;;;26.46;100.00;100221.00;5033209;28;20203;-69
2022/05/31 07:34:50;;;;;;;4.93;4.43;;;;;;;26.47;100.00;100209.44;5051746;28;20199;-69
2022/05/31 07:37:17;;;;;;;5.75;4.88;;;;;;;26.14;100.00;100212.72;5033311;28;20253;-69
2022/05/31 07:39:44;;;;;;;4.53;4.10;;;;;;;26.36;100.00;100211.75;5051929;28;20203;-70
2022/05/31 07:42:11;;;;;;;8.27;4.97;;;;;;;26.62;100.00;100216.66;5051960;28;20253;-70
2022/05/31 07:44:39;;;;;;;7.15;5.05;;;;;;;26.96;100.00;100213.22;5051762;28;20207;-70
2022/05/31 07:47:06;;;;;;;6.50;5.75;;;;;;;26.85;100.00;100194.28;5051561;28;20203;-69
2022/05/31 07:49:33;;;;;;;8.02;5.10;;;;;;;26.58;100.00;100201.78;5049351;28;20296;-70
2022/05/31 07:52:00;;;;;;;6.57;5.38;;;;;;;26.64;100.00;100201.50;5051534;28;20780;-70
2022/05/31 07:54:30;;;;;;;8.23;4.88;;;;;;;26.89;100.00;100207.34;5032709;28;20195;-69
2022/05/31 07:56:57;;;;;;;8.13;5.20;;;;;;;26.90;100.00;100203.75;5032739;28;20206;-69
2022/05/31 07:59:24;;;;;;;10.00;5.13;;;;;;;26.80;100.00;100213.09;5032520;28;20207;-69
2022/05/31 08:01:52;;;;;;;7.80;5.38;;;;;;;26.93;100.00;100219.53;5051558;28;20767;-70
2022/05/31 08:04:19;;;;;;;7.65;5.45;;;;;;;27.03;100.00;100220.84;5051704;28;20214;-69
2022/05/31 08:06:45;;;;;;;5.72;4.82;;;;;;;27.04;100.00;100221.69;5051351;28;20203;-70
2022/05/31 08:09:12;;;;;;;11.38;4.95;;;;;;;26.84;100.00;100214.69;5051098;28;20242;-69
2022/05/31 08:11:39;;;;;;;8.27;5.15;;;;;;;26.89;100.00;100210.03;5051266;28;20199;-69
2022/05/31 08:14:06;;;;;;;11.60;5.40;;;;;;;26.97;100.00;100218.47;5051195;28;20621;-69
2022/05/31 08:16:34;;;;;;;7.07;5.28;;;;;;;27.00;100.00;100215.63;5051066;28;20187;-69
2022/05/31 08:19:04;;;;;;;11.10;6.15;;;;;;;27.02;100.00;100213.78;5051027;28;20211;-69
2022/05/31 08:21:32;;;;;;;16.65;5.72;;;;;;;26.96;100.00;100224.75;5050345;28;20287;-69
2022/05/31 08:24:01;;;;;;;7.63;5.60;;;;;;;27.06;100.00;100207.38;5051020;28;20250;-70
2022/05/31 08:26:28;;;;;;;6.30;5.53;;;;;;;26.99;100.00;100223.72;5032107;28;20647;-69
2022/05/31 08:28:55;;;;;;;9.43;5.47;;;;;;;26.87;100.00;100229.63;5050892;28;20206;-69
2022/05/31 08:31:25;;;;;;;7.93;6.15;;;;;;;26.88;100.00;100226.06;5050573;28;20196;-69
2022/05/31 08:33:51;;;;;;;6.78;5.57;;;;;;;26.85;100.00;100223.56;5051198;28;20277;-69
2022/05/31 08:36:20;;;;;;;19.83;7.18;;;;;;;26.91;99.22;100226.75;5050733;28;20208;-70
2022/05/31 08:38:47;;;;;;;7.43;5.70;;;;;;;26.78;100.00;100220.31;5031921;28;20684;-71
2022/05/31 08:41:26;;;;;;;11.65;5.22;;;;;;;26.95;100.00;100228.34;5051017;28;20631;-70
2022/05/31 08:44:00;;;;;;;6.00;5.40;;;;;;;27.08;97.53;100231.22;5050555;28;20294;-70
2022/05/31 08:46:37;;;;;;;7.82;5.53;;;;;;;26.92;100.00;100201.88;5031861;28;20275;-69
2022/05/31 08:49:18;;;;;;;6.95;5.80;;;;;;;26.96;99.07;100178.63;5050425;28;20638;-70
2022/05/31 08:51:58;;;;;;;7.78;5.13;;;;;;;27.24;95.32;100215.34;5050758;28;20656;-70
2022/05/31 08:57:25;;;;;;;11.27;5.75;;;;;;;27.02;96.69;100189.81;5070314;28;20209;-70
2022/05/31 08:59:56;;;;;;;5.65;5.05;;;;;;;27.27;97.26;100221.38;5069859;28;20203;-70
2022/05/31 09:02:29;;;;;;;8.65;5.97;;;;;;;27.24;92.16;100223.34;5053963;28;20199;-70
2022/05/31 09:05:03;;;;;;;7.05;6.07;;;;;;;27.29;95.67;100210.66;5059377;28;20194;-70
2022/05/31 09:07:37;;;;;;;7.80;5.65;;;;;;;27.09;93.69;100183.25;5069929;28;20199;-70
2022/05/31 09:10:08;;;;;;;12.55;6.32;;;;;;;27.21;96.17;100199.53;5060809;28;20233;-70
2022/05/31 09:12:42;;;;;;;8.63;5.40;;;;;;;27.51;95.34;100208.63;5065702;28;20201;-70
2022/05/31 09:15:18;;;;;;;8.95;5.82;;;;;;;27.53;92.12;100206.75;5069865;28;20572;-69
2022/05/31 09:17:58;;;;;;;8.75;6.72;;;;;;;27.54;90.93;100200.44;5069971;28;20209;-71
2022/05/31 09:20:33;;;;;;;7.85;5.93;;;;;;;27.76;92.45;100213.50;5059642;28;20211;-71
2022/05/31 09:23:01;;;;;;;6.45;5.43;;;;;;;28.03;91.46;100210.22;5067599;28;20209;-71
2022/05/31 09:25:33;;;;;;;9.07;5.95;;;;;;;28.20;87.45;100216.47;5069449;28;20206;-71
2022/05/31 09:28:13;;;;;;;5.70;5.07;;;;;;;28.07;83.53;100219.78;5055623;28;20203;-71
2022/05/31 09:30:44;;;;;;;11.13;6.03;;;;;;;27.98;86.71;100217.59;5070142;28;20222;-71
2022/05/31 09:33:20;;;;;;;8.48;6.22;;;;;;;28.10;86.08;100216.13;5069726;28;20281;-71
2022/05/31 09:35:58;;;;;;;9.93;6.45;;;;;;;28.00;84.22;100215.69;5059482;28;20599;-71
2022/05/31 09:38:58;;;;;;;15.57;6.47;;;;;;;28.25;83.62;100209.06;5050043;28;20261;-72
2022/05/31 09:41:31;;;;;;;6.53;5.82;;;;;;;28.04;80.89;100217.25;5007687;28;20209;-72
2022/05/31 09:44:07;;;;;;;7.15;6.18;;;;;;;28.05;77.78;100211.00;5007742;28;20236;-71
2022/05/31 09:46:38;;;;;;;8.88;5.70;;;;;;;27.84;80.05;100188.16;5007754;28;20712;-72
2022/05/31 09:49:23;;;;;;;12.00;6.75;;;;;;;28.06;79.43;100204.72;5007456;28;20201;-72
2022/05/31 09:51:50;;;;;;;8.40;6.03;;;;;;;27.99;76.40;100198.00;5007373;28;20649;-71
2022/05/31 09:57:13;;;;;;;10.85;6.47;;;;;;;28.32;77.36;100206.00;5007436;28;20238;-71
2022/05/31 09:59:47;;;;;;;17.70;6.55;;;;;;;28.49;71.35;100210.38;5007404;28;20776;-71
2022/05/31 10:02:22;;;;;;;10.95;6.70;;;;;;;28.47;70.56;100201.56;5007295;28;20279;-71
2022/05/31 10:04:50;;;;;;;9.90;6.80;;;;;;;28.30;68.58;100191.84;5007351;28;20197;-71
2022/05/31 10:07:32;;;;;;;14.23;7.25;;;;;;;28.55;69.95;100194.84;5007176;28;20763;-71
2022/05/31 10:10:08;;;;;;;8.43;6.15;;;;;;;28.46;69.12;100199.88;5007196;28;20271;-71
2022/05/31 10:12:35;;;;;;;12.65;6.70;;;;;;;28.60;68.12;100196.41;5007586;28;20299;-71
2022/05/31 10:15:06;;;;;;;9.15;6.00;;;;;;;28.56;67.27;100182.38;5007448;28;20618;-71
2022/05/31 10:17:40;;;;;;;20.00;6.60;;;;;;;28.46;69.92;100165.19;5029806;28;20626;-71
2022/05/31 10:20:21;;;;;;;54.25;8.20;;;;;;;28.56;65.49;100188.59;5069636;28;20190;-71
2022/05/31 10:22:57;;;;;;;11.65;6.50;;;;;;;28.54;63.52;100189.59;5069409;28;20194;-71
2022/05/31 10:25:29;;;;;;;15.88;6.88;;;;;;;28.38;59.63;100173.63;5069489;28;20762;-71
2022/05/31 10:27:58;;;;;;;11.07;6.25;;;;;;;28.39;60.39;100178.03;5069135;28;20199;-68
2022/05/31 10:30:26;;;;;;;18.35;6.53;;;;;;;28.45;60.14;100179.47;5069179;28;20227;-71
2022/05/31 10:32:55;;;;;;;11.95;6.68;;;;;;;28.32;64.29;100165.09;5069089;28;20214;-71
2022/05/31 10:35:25;;;;;;;9.65;7.45;;;;;;;28.49;63.81;100183.69;5069226;28;20199;-70
2022/05/31 10:37:57;;;;;;;12.63;7.57;;;;;;;28.62;65.01;100187.34;5034460;28;20289;-73
2022/05/31 10:40:31;;;;;;;12.02;7.35;;;;;;;28.71;62.96;100180.69;5069134;28;20207;-72
2022/05/31 10:43:06;;;;;;;12.68;7.80;;;;;;;28.77;59.96;100172.28;5035029;28;20263;-72
2022/05/31 10:45:33;;;;;;;9.40;6.88;;;;;;;28.81;60.35;100164.03;5072215;28;20252;-72
2022/05/31 10:48:01;;;;;;;13.27;6.60;;;;;;;28.58;57.31;100165.31;5072745;28;20206;-73
2022/05/31 10:50:34;;;;;;;9.60;7.13;;;;;;;28.93;59.72;100176.63;5072806;28;20222;-72
2022/05/31 10:53:15;;;;;;;12.95;7.05;;;;;;;29.02;60.50;100169.91;5072714;28;20734;-71
2022/05/31 10:55:50;;;;;;;13.23;7.28;;;;;;;29.07;60.23;100166.97;5053863;28;20183;-71
2022/05/31 10:58:33;;;;;;;12.75;7.22;;;;;;;29.03;58.02;100161.81;5072674;28;20252;-71
2022/05/31 11:01:07;;;;;;;10.77;6.32;;;;;;;28.94;58.67;100154.34;5072421;28;20732;-71
2022/05/31 11:03:44;;;;;;;14.50;6.90;;;;;;;28.95;59.79;100140.03;5072280;28;20211;-71
2022/05/31 11:06:26;;;;;;;8.65;5.90;;;;;;;28.98;59.84;100134.50;5072259;28;20205;-71
2022/05/31 11:11:57;;;;;;;10.15;6.68;;;;;;;29.25;58.50;100156.00;5043114;28;20295;-69
2022/05/31 11:14:47;;;;;;;9.40;6.35;;;;;;;29.19;56.07;100156.41;5072304;28;20206;-70
2022/05/31 11:17:32;;;;;;;9.55;5.78;;;;;;;28.55;59.66;100124.63;5072333;28;20207;-71
2022/05/31 11:20:08;;;;;;;11.25;6.63;;;;;;;29.11;61.42;100141.81;5072574;28;20294;-72
2022/05/31 11:22:52;;;;;;;9.55;5.82;;;;;;;28.96;56.82;100079.50;5072556;28;20202;-71
2022/05/31 11:25:42;;;;;;;10.43;5.20;;;;;;;28.82;58.31;100130.19;5072425;28;20678;-72
2022/05/31 11:28:30;;;;;;;10.60;6.07;;;;;;;29.21;58.97;100137.63;5071918;28;20195;-69
2022/05/31 11:31:12;;;;;;;11.77;6.38;;;;;;;29.31;58.14;100134.31;5007873;28;20232;-72
2022/05/31 11:33:54;;;;;;;7.10;5.80;;;;;;;29.34;58.30;100128.78;5072609;28;20194;-72
2022/05/31 11:36:29;;;;;;;7.20;5.68;;;;;;;29.36;56.06;100121.53;5069793;28;20203;-73
2022/05/31 11:39:12;;;;;;;9.07;5.80;;;;;;;29.55;55.22;100131.94;5068463;28;20209;-72
2022/05/31 11:41:50;;;;;;;10.93;5.82;;;;;;;29.59;55.49;100128.13;5071909;28;20209;-72
2022/05/31 11:44:48;;;;;;;8.15;4.65;;;;;;;29.79;52.62;100124.19;5071983;28;20210;-72
2022/05/31 11:47:31;;;;;;;7.45;5.05;;;;;;;29.70;56.81;100120.28;5063042;28;20261;-72